createdAt,value
2022-11-09T00:01:32.007Z,91.40
2022-11-09T00:04:00.443Z,91.33
2022-11-09T00:06:27.969Z,91.34
2022-11-09T00:08:54.892Z,90.97
2022-11-09T00:11:21.462Z,91.13
2022-11-09T00:13:49.672Z,91.21
2022-11-09T00:16:17.892Z,90.78
2022-11-09T00:18:44.885Z,91.13
2022-11-09T00:21:13.768Z,90.93
2022-11-09T00:23:40.277Z,90.93
2022-11-09T00:26:09.269Z,91.22
2022-11-09T00:28:36.035Z,90.99
2022-11-09T00:31:07.631Z,91.32
2022-11-09T00:33:34.749Z,91.24
2022-11-09T00:36:04.050Z,90.93
2022-11-09T00:38:32.074Z,90.25
2022-11-09T00:41:00.398Z,90.62
2022-11-09T00:43:26.886Z,90.12
2022-11-09T00:45:53.394Z,89.81
2022-11-09T00:48:22.049Z,89.61
2022-11-09T00:50:51.889Z,88.93
2022-11-09T00:53:19.028Z,88.04
2022-11-09T00:55:53.802Z,87.62
2022-11-09T00:58:20.811Z,87.62
2022-11-09T01:00:47.339Z,87.38
2022-11-09T01:03:13.916Z,86.46
2022-11-09T01:05:43.631Z,85.93
2022-11-09T01:08:10.560Z,85.89
2022-11-09T01:10:40.238Z,85.72
2022-11-09T01:13:06.735Z,85.70
2022-11-09T01:15:33.203Z,85.72
2022-11-09T01:17:59.667Z,86.01
2022-11-09T01:20:26.142Z,85.73
2022-11-09T01:22:55.140Z,85.92
2022-11-09T01:25:21.602Z,85.67
2022-11-09T01:27:48.080Z,85.92
2022-11-09T01:30:14.531Z,85.84
2022-11-09T01:32:41.040Z,85.94
2022-11-09T01:35:08.272Z,86.12
2022-11-09T01:37:37.559Z,86.06
2022-11-09T01:40:06.673Z,86.21
2022-11-09T01:42:35.415Z,86.47
2022-11-09T01:45:25.392Z,86.29
2022-11-09T01:47:57.451Z,86.14
2022-11-09T01:50:31.205Z,86.45
2022-11-09T01:52:59.020Z,86.73
2022-11-09T01:55:27.124Z,86.37
2022-11-09T01:57:57.621Z,86.23
2022-11-09T02:00:24.100Z,86.20
2022-11-09T02:02:53.332Z,85.87
2022-11-09T02:05:24.846Z,86.63
2022-11-09T02:07:54.082Z,86.22
2022-11-09T02:10:26.744Z,86.65
2022-11-09T02:12:58.399Z,86.34
2022-11-09T02:15:25.667Z,86.57
2022-11-09T02:17:54.351Z,86.46
2022-11-09T02:20:23.972Z,86.37
2022-11-09T02:22:51.509Z,86.62
2022-11-09T02:25:18.234Z,86.20
2022-11-09T02:27:45.811Z,85.90
2022-11-09T02:30:14.787Z,86.16
2022-11-09T02:32:41.583Z,86.37
2022-11-09T02:35:09.419Z,86.60
2022-11-09T02:37:40.739Z,86.18
2022-11-09T02:40:14.259Z,86.31
2022-11-09T02:42:40.783Z,86.45
2022-11-09T02:45:08.791Z,86.42
2022-11-09T02:47:35.917Z,86.46
2022-11-09T02:50:02.583Z,86.63
2022-11-09T02:52:29.201Z,86.68
2022-11-09T02:54:57.579Z,86.68
2022-11-09T02:57:24.107Z,86.99
2022-11-09T02:59:51.149Z,86.88
2022-11-09T03:02:17.752Z,86.88
2022-11-09T03:04:44.339Z,86.63
2022-11-09T03:07:11.380Z,87.09
2022-11-09T03:09:39.087Z,87.57
2022-11-09T03:12:07.988Z,87.90
2022-11-09T03:14:34.633Z,88.12
2022-11-09T03:17:01.187Z,88.18
2022-11-09T03:19:27.792Z,88.40
2022-11-09T03:21:54.236Z,88.92
2022-11-09T03:24:23.253Z,88.86
2022-11-09T03:26:52.300Z,88.83
2022-11-09T03:29:20.356Z,88.68
2022-11-09T03:31:47.240Z,89.03
2022-11-09T03:34:13.876Z,89.16
2022-11-09T03:36:40.372Z,89.19
2022-11-09T03:39:06.916Z,89.34
2022-11-09T03:41:33.549Z,89.13
2022-11-09T03:44:00.935Z,89.33
2022-11-09T03:46:28.765Z,89.44
2022-11-09T03:48:55.229Z,89.41
2022-11-09T03:51:21.777Z,89.57
2022-11-09T03:53:48.232Z,89.70
2022-11-09T03:56:15.039Z,89.56
2022-11-09T03:58:41.563Z,89.74
2022-11-09T04:01:08.035Z,89.42
2022-11-09T04:03:35.974Z,89.23
2022-11-09T04:06:02.416Z,89.13
2022-11-09T04:08:28.991Z,88.96
2022-11-09T04:10:55.479Z,88.99
2022-11-09T04:13:22.226Z,89.29
2022-11-09T04:15:48.867Z,89.25
2022-11-09T04:18:17.051Z,88.98
2022-11-09T04:20:44.882Z,89.44
2022-11-09T04:23:13.058Z,89.46
2022-11-09T04:25:41.228Z,89.38
2022-11-09T04:28:10.820Z,89.68
2022-11-09T04:30:37.356Z,89.98
2022-11-09T04:33:04.567Z,89.46
2022-11-09T04:35:33.412Z,89.77
2022-11-09T04:38:03.032Z,89.94
2022-11-09T04:40:31.476Z,90.01
2022-11-09T04:42:59.152Z,90.00
2022-11-09T04:45:25.629Z,90.68
2022-11-09T04:47:56.493Z,90.81
2022-11-09T04:50:23.043Z,90.74
2022-11-09T04:52:51.473Z,90.62
2022-11-09T04:55:19.335Z,90.18
2022-11-09T04:57:45.818Z,90.74
2022-11-09T05:00:13.025Z,90.54
2022-11-09T05:02:39.520Z,90.79
2022-11-09T05:05:07.124Z,90.24
2022-11-09T05:07:33.576Z,90.61
2022-11-09T05:10:00.126Z,90.20
2022-11-09T05:12:28.041Z,90.48
2022-11-09T05:14:54.514Z,90.70
2022-11-09T05:17:21.241Z,91.19
2022-11-09T05:19:48.855Z,90.31
2022-11-09T05:22:16.859Z,90.88
2022-11-09T05:24:43.313Z,90.45
2022-11-09T05:27:09.709Z,90.85
2022-11-09T05:29:37.544Z,91.25
2022-11-09T05:32:04.405Z,90.91
2022-11-09T05:34:30.825Z,91.05
2022-11-09T05:37:03.175Z,91.30
2022-11-09T05:39:30.097Z,90.92
2022-11-09T05:41:56.578Z,90.75
2022-11-09T05:44:23.137Z,91.02
2022-11-09T05:46:51.125Z,91.88
2022-11-09T05:49:17.580Z,94.94
2022-11-09T05:51:44.059Z,98.48
2022-11-09T05:54:10.870Z,100.00
2022-11-09T05:56:37.340Z,100.00
2022-11-09T05:59:03.828Z,100.00
2022-11-09T06:01:30.308Z,100.00
2022-11-09T06:03:58.164Z,100.00
2022-11-09T06:06:24.613Z,100.00
2022-11-09T06:08:51.541Z,100.00
2022-11-09T06:11:23.664Z,100.00
2022-11-09T06:13:51.282Z,100.00
2022-11-09T06:16:17.763Z,100.00
2022-11-09T06:18:44.212Z,100.00
2022-11-09T06:21:12.099Z,100.00
2022-11-09T06:23:38.859Z,100.00
2022-11-09T06:26:08.114Z,100.00
2022-11-09T06:28:34.860Z,100.00
2022-11-09T06:31:03.503Z,100.00
2022-11-09T06:33:30.944Z,100.00
2022-11-09T06:35:58.276Z,100.00
2022-11-09T06:38:26.723Z,100.00
2022-11-09T06:40:53.770Z,100.00
2022-11-09T06:43:21.076Z,100.00
2022-11-09T06:45:47.823Z,100.00
2022-11-09T06:48:14.739Z,100.00
2022-11-09T06:50:41.421Z,100.00
2022-11-09T06:53:10.507Z,100.00
2022-11-09T06:55:38.395Z,100.00
2022-11-09T06:58:06.012Z,100.00
2022-11-09T07:00:32.688Z,100.00
2022-11-09T07:02:59.177Z,100.00
2022-11-09T07:05:25.723Z,100.00
2022-11-09T07:07:52.160Z,100.00
2022-11-09T07:10:18.860Z,100.00
2022-11-09T07:12:47.050Z,100.00
2022-11-09T07:15:13.706Z,100.00
2022-11-09T07:17:40.556Z,100.00
2022-11-09T07:20:08.204Z,100.00
2022-11-09T07:22:34.664Z,100.00
2022-11-09T07:25:01.129Z,100.00
2022-11-09T07:27:28.465Z,100.00
2022-11-09T07:29:56.397Z,100.00
2022-11-09T07:32:35.488Z,100.00
2022-11-09T07:35:09.921Z,100.00
2022-11-09T07:37:36.912Z,100.00
2022-11-09T07:40:03.984Z,100.00
2022-11-09T07:42:30.459Z,100.00
2022-11-09T07:44:58.284Z,100.00
2022-11-09T07:47:24.736Z,100.00
2022-11-09T07:49:51.236Z,100.00
2022-11-09T07:52:17.730Z,100.00
2022-11-09T07:54:48.223Z,99.82
2022-11-09T07:57:17.575Z,97.71
2022-11-09T07:59:44.156Z,95.46
2022-11-09T08:02:12.102Z,94.49
2022-11-09T08:04:39.195Z,91.42
2022-11-09T08:07:05.812Z,88.79
2022-11-09T08:09:32.366Z,85.53
2022-11-09T08:11:58.922Z,84.48
2022-11-09T08:14:25.441Z,85.68
2022-11-09T08:16:51.930Z,84.53
2022-11-09T08:19:19.779Z,84.76
2022-11-09T08:21:46.278Z,82.94
2022-11-09T08:24:12.889Z,81.16
2022-11-09T08:26:39.487Z,79.35
2022-11-09T08:29:05.975Z,77.79
2022-11-09T08:31:32.435Z,75.64
2022-11-09T08:33:58.915Z,75.83
2022-11-09T08:36:26.764Z,75.99
2022-11-09T08:38:53.294Z,74.27
2022-11-09T08:41:19.819Z,73.28
2022-11-09T08:43:46.258Z,73.23
2022-11-09T08:46:12.747Z,74.46
2022-11-09T08:48:39.256Z,71.25
2022-11-09T08:51:06.146Z,69.93
2022-11-09T08:53:34.011Z,71.39
2022-11-09T08:56:00.459Z,68.22
2022-11-09T08:58:27.009Z,67.55
2022-11-09T09:00:53.492Z,66.04
2022-11-09T09:03:20.068Z,63.54
2022-11-09T09:05:46.550Z,65.98
2022-11-09T09:08:13.521Z,62.88
2022-11-09T09:10:41.451Z,63.97
2022-11-09T09:13:08.015Z,65.42
2022-11-09T09:15:34.488Z,65.61
2022-11-09T09:18:01.303Z,66.94
2022-11-09T09:20:28.014Z,67.94
2022-11-09T09:22:54.527Z,68.51
2022-11-09T09:25:21.011Z,68.71
2022-11-09T09:27:48.770Z,69.49
2022-11-09T09:30:15.311Z,71.93
2022-11-09T09:32:41.787Z,72.35
2022-11-09T09:35:09.370Z,71.78
2022-11-09T09:37:35.946Z,73.38
2022-11-09T09:40:02.471Z,74.25
2022-11-09T09:42:33.345Z,73.10
2022-11-09T09:45:04.408Z,73.24
2022-11-09T09:47:44.461Z,72.91
2022-11-09T09:50:15.814Z,70.98
2022-11-09T09:53:04.594Z,72.28
2022-11-09T09:55:37.209Z,71.92
2022-11-09T09:58:09.984Z,70.88
2022-11-09T10:00:39.209Z,70.41
2022-11-09T10:03:06.357Z,69.09
2022-11-09T10:05:51.306Z,71.10
2022-11-09T10:08:41.651Z,71.52
2022-11-09T10:11:16.895Z,71.56
2022-11-09T10:14:09.562Z,72.79
2022-11-09T10:16:47.683Z,72.53
2022-11-09T10:19:28.565Z,72.33
2022-11-09T10:22:02.042Z,73.05
2022-11-09T10:24:48.533Z,71.71
2022-11-09T10:27:27.679Z,72.20
2022-11-09T10:29:54.854Z,72.84
2022-11-09T10:32:24.094Z,70.70
2022-11-09T10:34:54.760Z,71.09
2022-11-09T10:37:27.418Z,69.63
2022-11-09T10:40:00.522Z,70.80
2022-11-09T10:42:49.056Z,69.74
2022-11-09T10:45:36.031Z,69.10
2022-11-09T10:48:31.663Z,68.85
2022-11-09T10:51:35.166Z,69.45
2022-11-09T10:54:21.943Z,69.09
2022-11-09T10:57:14.798Z,67.40
2022-11-09T11:00:00.395Z,68.26
2022-11-09T11:02:47.233Z,68.71
2022-11-09T11:05:34.229Z,68.17
2022-11-09T11:08:28.954Z,68.90
2022-11-09T11:11:38.860Z,69.51
2022-11-09T11:14:31.424Z,69.37
2022-11-09T11:17:25.312Z,68.58
2022-11-09T11:20:28.445Z,69.25
2022-11-09T11:23:17.618Z,69.17
2022-11-09T11:26:16.161Z,69.49
2022-11-09T11:29:08.852Z,67.95
2022-11-09T11:31:54.230Z,67.37
2022-11-09T11:34:58.981Z,68.21
2022-11-09T11:37:53.810Z,67.30
2022-11-09T11:40:47.397Z,67.98
2022-11-09T11:43:43.818Z,68.20
2022-11-09T11:46:40.740Z,67.40
2022-11-09T11:50:05.894Z,67.69
2022-11-09T11:53:03.770Z,68.78
2022-11-09T11:56:05.667Z,68.05
2022-11-09T11:59:11.248Z,68.27
2022-11-09T12:02:20.192Z,67.99
2022-11-09T12:05:30.054Z,67.63
2022-11-09T12:08:22.776Z,66.93
2022-11-09T12:11:19.371Z,66.56
2022-11-09T12:14:13.130Z,67.98
2022-11-09T12:17:04.294Z,67.33
2022-11-09T12:20:14.566Z,67.39
2022-11-09T12:23:13.023Z,70.42
2022-11-09T12:26:15.513Z,67.61
2022-11-09T12:29:13.130Z,67.51
2022-11-09T12:32:22.782Z,69.21
2022-11-09T12:35:30.340Z,67.76
2022-11-09T12:38:19.901Z,66.92
2022-11-09T12:41:09.934Z,69.16
2022-11-09T12:44:00.717Z,69.49
2022-11-09T12:46:51.778Z,68.65
2022-11-09T12:49:39.239Z,69.13
2022-11-09T12:52:28.045Z,69.29
2022-11-09T12:55:14.560Z,67.65
2022-11-09T12:58:01.163Z,68.11
2022-11-09T13:00:52.854Z,68.10
2022-11-09T13:03:52.166Z,67.84
2022-11-09T13:06:37.420Z,67.64
2022-11-09T13:09:24.813Z,67.85
2022-11-09T13:12:19.045Z,68.25
2022-11-09T13:15:23.171Z,68.16
2022-11-09T13:18:24.291Z,68.53
2022-11-09T13:21:39.910Z,69.44
2022-11-09T13:24:52.985Z,69.69
2022-11-09T13:27:44.285Z,70.09
2022-11-09T13:30:50.383Z,71.03
2022-11-09T13:33:35.753Z,71.00
2022-11-09T13:36:21.032Z,71.51
2022-11-09T13:39:30.985Z,70.69
2022-11-09T13:42:35.753Z,70.81
2022-11-09T13:45:29.868Z,70.21
2022-11-09T13:48:41.487Z,70.07
2022-11-09T13:51:43.097Z,70.92
2022-11-09T13:54:31.054Z,71.24
2022-11-09T13:57:16.295Z,72.70
2022-11-09T14:00:03.121Z,70.88
2022-11-09T14:02:56.858Z,70.55
2022-11-09T14:05:44.061Z,71.35
2022-11-09T14:08:37.472Z,71.13
2022-11-09T14:11:42.287Z,72.07
2022-11-09T14:14:59.925Z,71.80
2022-11-09T14:17:57.394Z,70.92
2022-11-09T14:20:53.581Z,71.19
2022-11-09T14:23:38.750Z,70.21
2022-11-09T14:26:25.218Z,71.03
2022-11-09T14:29:20.574Z,71.53
2022-11-09T14:32:23.301Z,71.76
2022-11-09T14:35:19.944Z,71.49
2022-11-09T14:38:16.019Z,71.68
2022-11-09T14:41:02.173Z,72.32
2022-11-09T14:43:49.282Z,72.11
2022-11-09T14:46:35.630Z,72.38
2022-11-09T14:49:22.025Z,71.88
2022-11-09T14:52:12.618Z,72.50
2022-11-09T14:54:58.559Z,72.51
2022-11-09T14:57:47.166Z,73.33
2022-11-09T15:00:34.801Z,73.63
2022-11-09T15:03:27.662Z,74.01
2022-11-09T15:06:15.787Z,74.54
2022-11-09T15:09:04.600Z,74.24
2022-11-09T15:14:36.149Z,74.64
2022-11-09T15:17:25.581Z,75.08
2022-11-09T15:20:27.203Z,75.45
2022-11-09T15:23:22.878Z,75.98
2022-11-09T15:26:24.893Z,76.87
2022-11-09T15:29:43.585Z,77.37
2022-11-09T15:32:33.582Z,77.68
2022-11-09T15:35:19.586Z,77.98
2022-11-09T15:38:06.317Z,78.85
2022-11-09T15:40:51.558Z,78.83
2022-11-09T15:43:37.177Z,78.84
2022-11-09T15:46:24.594Z,79.45
2022-11-09T15:49:16.724Z,79.32
2022-11-09T15:52:02.909Z,79.97
2022-11-09T15:54:49.377Z,80.57
2022-11-09T15:57:34.545Z,80.35
2022-11-09T16:00:22.164Z,80.40
2022-11-09T16:03:07.605Z,80.37
2022-11-09T16:05:52.546Z,81.08
2022-11-09T16:08:37.690Z,80.92
2022-11-09T16:11:24.390Z,81.23
2022-11-09T16:14:09.610Z,81.39
2022-11-09T16:16:54.494Z,81.99
2022-11-09T16:19:39.521Z,82.00
2022-11-09T16:22:29.497Z,82.48
2022-11-09T16:25:18.087Z,82.67
2022-11-09T16:28:04.928Z,82.35
2022-11-09T16:30:49.959Z,83.45
2022-11-09T16:33:36.105Z,83.39
2022-11-09T16:36:24.177Z,83.78
2022-11-09T16:39:11.398Z,83.63
2022-11-09T16:41:56.443Z,84.87
2022-11-09T16:44:45.161Z,84.86
2022-11-09T16:47:30.773Z,84.64
2022-11-09T16:50:16.134Z,83.98
2022-11-09T16:53:01.131Z,84.08
2022-11-09T16:55:46.358Z,83.72
2022-11-09T16:58:31.783Z,83.45
2022-11-09T17:01:22.236Z,83.65
2022-11-09T17:04:08.833Z,84.12
2022-11-09T17:06:54.024Z,83.84
2022-11-09T17:09:39.346Z,83.54
2022-11-09T17:12:24.628Z,83.26
2022-11-09T17:15:10.754Z,82.78
2022-11-09T17:17:57.043Z,82.55
2022-11-09T17:20:43.143Z,82.59
2022-11-09T17:23:28.130Z,82.17
2022-11-09T17:26:13.530Z,81.41
2022-11-09T17:28:58.515Z,81.31
2022-11-09T17:31:43.466Z,81.67
2022-11-09T17:34:30.150Z,81.69
2022-11-09T17:37:15.383Z,82.10
2022-11-09T17:40:02.562Z,82.04
2022-11-09T17:42:47.912Z,83.35
2022-11-09T17:45:35.047Z,83.03
2022-11-09T17:48:20.041Z,83.54
2022-11-09T17:51:07.337Z,84.15
2022-11-09T17:53:52.818Z,84.14
2022-11-09T17:56:37.933Z,83.94
2022-11-09T17:59:23.203Z,84.26
2022-11-09T18:02:09.646Z,84.84
2022-11-09T18:04:54.710Z,85.27
2022-11-09T18:07:41.171Z,84.95
2022-11-09T18:10:26.422Z,85.00
2022-11-09T18:13:11.498Z,84.85
2022-11-09T18:15:56.823Z,85.02
2022-11-09T18:18:42.810Z,84.89
2022-11-09T18:21:31.934Z,85.61
2022-11-09T18:24:18.698Z,85.15
2022-11-09T18:27:03.759Z,85.55
2022-11-09T18:29:48.998Z,85.80
2022-11-09T18:32:34.062Z,85.21
2022-11-09T18:35:19.077Z,85.54
2022-11-09T18:38:04.195Z,85.24
2022-11-09T18:40:58.655Z,85.38
2022-11-09T18:43:43.938Z,85.39
2022-11-09T18:46:34.019Z,85.12
2022-11-09T18:49:19.086Z,85.13
2022-11-09T18:52:04.817Z,85.38
2022-11-09T18:54:49.665Z,85.27
2022-11-09T18:57:35.921Z,85.09
2022-11-09T19:00:21.384Z,85.22
2022-11-09T19:03:06.772Z,84.79
2022-11-09T19:05:52.124Z,85.24
2022-11-09T19:08:37.589Z,85.30
2022-11-09T19:11:22.960Z,85.09
2022-11-09T19:14:10.498Z,85.41
2022-11-09T19:16:56.090Z,85.36
2022-11-09T19:19:42.001Z,85.71
2022-11-09T19:22:27.840Z,85.46
2022-11-09T19:25:13.007Z,85.23
2022-11-09T19:27:57.913Z,85.25
2022-11-09T19:30:44.533Z,85.79
2022-11-09T19:33:29.963Z,85.96
2022-11-09T19:36:29.585Z,85.48
2022-11-09T19:39:16.301Z,85.58
2022-11-09T19:42:01.637Z,85.95
2022-11-09T19:44:48.912Z,86.05
2022-11-09T19:47:38.591Z,86.19
2022-11-09T19:50:23.651Z,86.64
2022-11-09T19:53:08.634Z,86.57
2022-11-09T19:55:58.070Z,86.36
2022-11-09T19:58:43.754Z,86.90
2022-11-09T20:01:29.201Z,86.73
2022-11-09T20:04:15.443Z,86.69
2022-11-09T20:07:00.640Z,86.88
2022-11-09T20:09:45.801Z,87.13
2022-11-09T20:12:30.955Z,87.36
2022-11-09T20:15:16.260Z,87.43
2022-11-09T20:18:01.335Z,87.63
2022-11-09T20:20:47.978Z,87.56
2022-11-09T20:23:33.342Z,87.71
2022-11-09T20:26:18.569Z,87.93
2022-11-09T20:29:03.878Z,88.29
2022-11-09T20:31:48.911Z,87.97
2022-11-09T20:34:34.414Z,87.93
2022-11-09T20:37:20.791Z,88.57
2022-11-09T20:40:06.460Z,88.33
2022-11-09T20:42:51.608Z,88.17
2022-11-09T20:45:36.744Z,88.24
2022-11-09T20:48:51.627Z,88.61
2022-11-09T20:51:27.290Z,88.16
2022-11-09T20:54:13.460Z,87.81
2022-11-09T20:56:58.843Z,87.76
2022-11-09T20:59:43.992Z,87.78
2022-11-09T21:02:28.959Z,87.75
2022-11-09T21:05:14.479Z,87.81
2022-11-09T21:08:00.059Z,88.14
2022-11-09T21:10:46.668Z,88.09
2022-11-09T21:13:32.481Z,88.09
2022-11-09T21:16:19.112Z,87.87
2022-11-09T21:19:04.196Z,88.37
2022-11-09T21:21:49.050Z,87.86
2022-11-09T21:24:34.064Z,88.12
2022-11-09T21:27:20.633Z,90.70
2022-11-09T21:30:06.590Z,92.50
2022-11-09T21:32:51.565Z,92.87
2022-11-09T21:35:36.624Z,92.08
2022-11-09T21:38:22.196Z,92.90
2022-11-09T21:41:08.801Z,92.48
2022-11-09T21:43:55.892Z,92.39
2022-11-09T21:46:42.369Z,92.84
2022-11-09T21:49:28.329Z,93.47
2022-11-09T21:52:13.096Z,92.37
2022-11-09T21:54:58.009Z,92.61
2022-11-09T21:57:42.993Z,92.78
2022-11-09T22:00:29.901Z,92.45
2022-11-09T22:03:14.991Z,93.06
2022-11-09T22:06:00.352Z,92.86
2022-11-09T22:08:45.608Z,92.73
2022-11-09T22:11:30.956Z,93.00
2022-11-09T22:14:18.474Z,92.52
2022-11-09T22:17:06.457Z,92.60
2022-11-09T22:19:51.669Z,92.23
2022-11-09T22:22:36.692Z,92.66
2022-11-09T22:25:21.498Z,92.06
2022-11-09T22:28:06.582Z,92.41
2022-11-09T22:30:51.686Z,92.93
2022-11-09T22:33:38.297Z,94.24
2022-11-09T22:36:23.419Z,93.98
2022-11-09T22:39:08.681Z,94.23
2022-11-09T22:41:53.949Z,94.44
2022-11-09T22:44:39.003Z,94.00
2022-11-09T22:47:23.958Z,94.10
2022-11-09T22:50:10.508Z,93.87
2022-11-09T22:52:57.384Z,93.66
2022-11-09T22:55:52.052Z,94.04
2022-11-09T22:58:37.128Z,94.45
2022-11-09T23:01:22.520Z,93.76
2022-11-09T23:04:08.717Z,93.98
2022-11-09T23:06:55.351Z,94.25
2022-11-09T23:09:40.488Z,93.86
2022-11-09T23:12:25.805Z,94.60
2022-11-09T23:15:10.845Z,94.49
2022-11-09T23:17:57.768Z,94.34
2022-11-09T23:20:43.542Z,94.54
2022-11-09T23:23:29.912Z,94.21
2022-11-09T23:26:15.185Z,94.26
2022-11-09T23:29:00.243Z,94.46
2022-11-09T23:31:45.481Z,94.30
2022-11-09T23:34:30.401Z,94.27
2022-11-09T23:37:15.246Z,94.41
2022-11-09T23:40:01.717Z,95.24
2022-11-09T23:42:46.358Z,94.59
2022-11-09T23:45:33.320Z,94.93
2022-11-09T23:48:19.245Z,95.39
2022-11-09T23:51:05.362Z,95.42
2022-11-09T23:53:50.654Z,95.28
2022-11-09T23:56:37.066Z,95.22
2022-11-09T23:59:22.297Z,95.09
